sensor_id;sensor_type;location;lat;lon;timestamp;temperature;humidity
17252;DHT22;8742;51.716;8.790;2023-11-21T00:02:13;7.20;99.90
17252;DHT22;8742;51.716;8.790;2023-11-21T00:04:41;7.10;99.90
17252;DHT22;8742;51.716;8.790;2023-11-21T00:07:08;7.00;99.90
17252;DHT22;8742;51.716;8.790;2023-11-21T00:09:35;6.90;99.90
17252;DHT22;8742;51.716;8.790;2023-11-21T00:12:02;6.80;99.90
17252;DHT22;8742;51.716;8.790;2023-11-21T00:14:29;6.80;99.90
17252;DHT22;8742;51.716;8.790;2023-11-21T00:16:56;6.70;99.90
17252;DHT22;8742;51.716;8.790;2023-11-21T00:19:22;6.70;99.90
17252;DHT22;8742;51.716;8.790;2023-11-21T00:21:51;6.70;99.90
17252;DHT22;8742;51.716;8.790;2023-11-21T00:24:18;6.60;99.90
17252;DHT22;8742;51.716;8.790;2023-11-21T00:26:44;6.70;99.90
17252;DHT22;8742;51.716;8.790;2023-11-21T00:29:14;6.70;99.90
17252;DHT22;8742;51.716;8.790;2023-11-21T00:31:42;6.70;99.90
17252;DHT22;8742;51.716;8.790;2023-11-21T00:34:10;6.80;99.90
17252;DHT22;8742;51.716;8.790;2023-11-21T00:36:37;6.80;99.90
17252;DHT22;8742;51.716;8.790;2023-11-21T00:39:05;6.90;99.90
17252;DHT22;8742;51.716;8.790;2023-11-21T00:41:33;6.90;99.90
17252;DHT22;8742;51.716;8.790;2023-11-21T00:44:00;7.00;99.90
17252;DHT22;8742;51.716;8.790;2023-11-21T00:46:27;7.00;99.90
17252;DHT22;8742;51.716;8.790;2023-11-21T00:48:54;7.10;99.90
17252;DHT22;8742;51.716;8.790;2023-11-21T00:51:22;7.10;99.90
17252;DHT22;8742;51.716;8.790;2023-11-21T00:53:48;7.10;99.90
17252;DHT22;8742;51.716;8.790;2023-11-21T00:56:17;7.20;99.90
17252;DHT22;8742;51.716;8.790;2023-11-21T00:58:43;7.20;99.90
17252;DHT22;8742;51.716;8.790;2023-11-21T01:01:16;7.20;99.90
17252;DHT22;8742;51.716;8.790;2023-11-21T01:03:43;7.20;99.90
17252;DHT22;8742;51.716;8.790;2023-11-21T01:06:11;7.20;99.90
17252;DHT22;8742;51.716;8.790;2023-11-21T01:08:38;7.20;99.90
17252;DHT22;8742;51.716;8.790;2023-11-21T01:11:05;7.20;99.90
17252;DHT22;8742;51.716;8.790;2023-11-21T01:13:35;7.20;99.90
17252;DHT22;8742;51.716;8.790;2023-11-21T01:16:02;7.20;99.90
17252;DHT22;8742;51.716;8.790;2023-11-21T01:18:29;7.30;99.90
17252;DHT22;8742;51.716;8.790;2023-11-21T01:20:56;7.30;99.90
17252;DHT22;8742;51.716;8.790;2023-11-21T01:23:23;7.30;99.90
17252;DHT22;8742;51.716;8.790;2023-11-21T01:25:49;7.40;99.90
17252;DHT22;8742;51.716;8.790;2023-11-21T01:28:17;7.40;99.90
17252;DHT22;8742;51.716;8.790;2023-11-21T01:30:46;7.40;99.90
17252;DHT22;8742;51.716;8.790;2023-11-21T01:33:13;7.40;99.90
17252;DHT22;8742;51.716;8.790;2023-11-21T01:35:41;7.50;99.90
17252;DHT22;8742;51.716;8.790;2023-11-21T01:38:08;7.50;99.90
17252;DHT22;8742;51.716;8.790;2023-11-21T01:40:35;7.50;99.90
17252;DHT22;8742;51.716;8.790;2023-11-21T01:43:02;7.50;99.90
17252;DHT22;8742;51.716;8.790;2023-11-21T01:45:29;7.50;99.90
17252;DHT22;8742;51.716;8.790;2023-11-21T01:47:58;7.50;99.90
17252;DHT22;8742;51.716;8.790;2023-11-21T01:50:26;7.50;99.90
17252;DHT22;8742;51.716;8.790;2023-11-21T01:52:53;7.50;99.90
17252;DHT22;8742;51.716;8.790;2023-11-21T01:55:20;7.50;99.90
17252;DHT22;8742;51.716;8.790;2023-11-21T01:57:48;7.50;99.90
17252;DHT22;8742;51.716;8.790;2023-11-21T02:00:15;7.50;99.90
17252;DHT22;8742;51.716;8.790;2023-11-21T02:02:42;7.40;99.90
17252;DHT22;8742;51.716;8.790;2023-11-21T02:05:12;7.40;99.90
17252;DHT22;8742;51.716;8.790;2023-11-21T02:07:40;7.30;99.90
17252;DHT22;8742;51.716;8.790;2023-11-21T02:10:07;7.30;99.90
17252;DHT22;8742;51.716;8.790;2023-11-21T02:12:34;7.20;99.90
17252;DHT22;8742;51.716;8.790;2023-11-21T02:15:02;7.20;99.90
17252;DHT22;8742;51.716;8.790;2023-11-21T02:17:30;7.20;99.90
17252;DHT22;8742;51.716;8.790;2023-11-21T02:19:58;7.10;99.90
17252;DHT22;8742;51.716;8.790;2023-11-21T02:22:27;7.10;99.90
17252;DHT22;8742;51.716;8.790;2023-11-21T02:24:59;7.10;99.90
17252;DHT22;8742;51.716;8.790;2023-11-21T02:27:26;7.10;99.90
17252;DHT22;8742;51.716;8.790;2023-11-21T02:29:53;7.10;99.90
17252;DHT22;8742;51.716;8.790;2023-11-21T02:32:20;7.10;99.90
17252;DHT22;8742;51.716;8.790;2023-11-21T02:34:48;7.10;99.90
17252;DHT22;8742;51.716;8.790;2023-11-21T02:37:15;7.10;99.90
17252;DHT22;8742;51.716;8.790;2023-11-21T02:39:42;7.10;99.90
17252;DHT22;8742;51.716;8.790;2023-11-21T02:42:10;7.10;99.90
17252;DHT22;8742;51.716;8.790;2023-11-21T02:44:37;7.20;99.90
17252;DHT22;8742;51.716;8.790;2023-11-21T02:47:04;7.10;99.90
17252;DHT22;8742;51.716;8.790;2023-11-21T02:49:31;7.10;99.90
17252;DHT22;8742;51.716;8.790;2023-11-21T02:51:59;7.10;99.90
17252;DHT22;8742;51.716;8.790;2023-11-21T02:54:26;7.20;99.90
17252;DHT22;8742;51.716;8.790;2023-11-21T02:56:53;7.20;99.90
17252;DHT22;8742;51.716;8.790;2023-11-21T02:59:21;7.20;99.90
17252;DHT22;8742;51.716;8.790;2023-11-21T03:01:48;7.20;99.90
17252;DHT22;8742;51.716;8.790;2023-11-21T03:04:15;7.30;99.90
17252;DHT22;8742;51.716;8.790;2023-11-21T03:06:43;7.30;99.90
17252;DHT22;8742;51.716;8.790;2023-11-21T03:09:10;7.30;99.90
17252;DHT22;8742;51.716;8.790;2023-11-21T03:11:38;7.30;99.90
17252;DHT22;8742;51.716;8.790;2023-11-21T03:14:05;7.40;99.90
17252;DHT22;8742;51.716;8.790;2023-11-21T03:16:33;7.40;99.90
17252;DHT22;8742;51.716;8.790;2023-11-21T03:19:00;7.40;99.90
17252;DHT22;8742;51.716;8.790;2023-11-21T03:21:27;7.40;99.90
17252;DHT22;8742;51.716;8.790;2023-11-21T03:23:54;7.50;99.90
17252;DHT22;8742;51.716;8.790;2023-11-21T03:26:21;7.50;99.90
17252;DHT22;8742;51.716;8.790;2023-11-21T03:28:48;7.50;99.90
17252;DHT22;8742;51.716;8.790;2023-11-21T03:31:16;7.60;99.90
17252;DHT22;8742;51.716;8.790;2023-11-21T03:33:45;7.60;99.90
17252;DHT22;8742;51.716;8.790;2023-11-21T03:36:14;7.60;99.90
17252;DHT22;8742;51.716;8.790;2023-11-21T03:38:44;7.60;99.90
17252;DHT22;8742;51.716;8.790;2023-11-21T03:41:11;7.60;99.90
17252;DHT22;8742;51.716;8.790;2023-11-21T03:43:38;7.70;99.90
17252;DHT22;8742;51.716;8.790;2023-11-21T03:46:05;7.70;99.90
17252;DHT22;8742;51.716;8.790;2023-11-21T03:48:32;7.70;99.90
17252;DHT22;8742;51.716;8.790;2023-11-21T03:51:01;7.70;99.90
17252;DHT22;8742;51.716;8.790;2023-11-21T03:53:28;7.70;99.90
17252;DHT22;8742;51.716;8.790;2023-11-21T03:55:54;7.70;99.90
17252;DHT22;8742;51.716;8.790;2023-11-21T03:58:21;7.80;99.90
17252;DHT22;8742;51.716;8.790;2023-11-21T04:00:48;7.80;99.90
17252;DHT22;8742;51.716;8.790;2023-11-21T04:03:15;7.80;99.90
17252;DHT22;8742;51.716;8.790;2023-11-21T04:05:42;7.80;99.90
17252;DHT22;8742;51.716;8.790;2023-11-21T04:08:10;7.80;99.90
17252;DHT22;8742;51.716;8.790;2023-11-21T04:10:37;7.80;99.90
17252;DHT22;8742;51.716;8.790;2023-11-21T04:13:05;7.80;99.90
17252;DHT22;8742;51.716;8.790;2023-11-21T04:15:32;7.80;99.90
17252;DHT22;8742;51.716;8.790;2023-11-21T04:17:58;7.80;99.90
17252;DHT22;8742;51.716;8.790;2023-11-21T04:20:25;7.80;99.90
17252;DHT22;8742;51.716;8.790;2023-11-21T04:22:52;7.80;99.90
17252;DHT22;8742;51.716;8.790;2023-11-21T04:25:20;7.80;99.90
17252;DHT22;8742;51.716;8.790;2023-11-21T04:27:49;7.80;99.90
17252;DHT22;8742;51.716;8.790;2023-11-21T04:30:16;7.90;99.90
17252;DHT22;8742;51.716;8.790;2023-11-21T04:32:43;7.80;99.90
17252;DHT22;8742;51.716;8.790;2023-11-21T04:35:09;7.80;99.90
17252;DHT22;8742;51.716;8.790;2023-11-21T04:37:36;7.80;99.90
17252;DHT22;8742;51.716;8.790;2023-11-21T04:40:04;7.80;99.90
17252;DHT22;8742;51.716;8.790;2023-11-21T04:42:35;7.80;99.90
17252;DHT22;8742;51.716;8.790;2023-11-21T04:45:02;7.90;99.90
17252;DHT22;8742;51.716;8.790;2023-11-21T04:47:33;7.90;99.90
17252;DHT22;8742;51.716;8.790;2023-11-21T04:50:00;7.90;99.90
17252;DHT22;8742;51.716;8.790;2023-11-21T04:52:27;7.90;99.90
17252;DHT22;8742;51.716;8.790;2023-11-21T04:54:54;7.90;99.90
17252;DHT22;8742;51.716;8.790;2023-11-21T04:57:21;7.90;99.90
17252;DHT22;8742;51.716;8.790;2023-11-21T04:59:49;7.90;99.90
17252;DHT22;8742;51.716;8.790;2023-11-21T05:02:16;7.90;99.90
17252;DHT22;8742;51.716;8.790;2023-11-21T05:04:44;7.90;99.90
17252;DHT22;8742;51.716;8.790;2023-11-21T05:07:11;7.90;99.90
17252;DHT22;8742;51.716;8.790;2023-11-21T05:09:41;7.90;99.90
17252;DHT22;8742;51.716;8.790;2023-11-21T05:12:09;7.90;99.90
17252;DHT22;8742;51.716;8.790;2023-11-21T05:14:36;7.90;99.90
17252;DHT22;8742;51.716;8.790;2023-11-21T05:17:05;7.90;99.90
17252;DHT22;8742;51.716;8.790;2023-11-21T05:19:33;8.00;99.90
17252;DHT22;8742;51.716;8.790;2023-11-21T05:22:01;8.00;99.90
17252;DHT22;8742;51.716;8.790;2023-11-21T05:24:27;8.00;99.90
17252;DHT22;8742;51.716;8.790;2023-11-21T05:26:54;8.00;99.90
17252;DHT22;8742;51.716;8.790;2023-11-21T05:29:22;8.00;99.90
17252;DHT22;8742;51.716;8.790;2023-11-21T05:31:49;8.00;99.90
17252;DHT22;8742;51.716;8.790;2023-11-21T05:34:18;8.00;99.90
17252;DHT22;8742;51.716;8.790;2023-11-21T05:36:46;8.00;99.90
17252;DHT22;8742;51.716;8.790;2023-11-21T05:39:14;8.00;99.90
17252;DHT22;8742;51.716;8.790;2023-11-21T05:41:42;8.00;99.90
17252;DHT22;8742;51.716;8.790;2023-11-21T05:44:09;8.00;99.90
17252;DHT22;8742;51.716;8.790;2023-11-21T05:46:36;8.00;99.90
17252;DHT22;8742;51.716;8.790;2023-11-21T05:49:03;8.00;99.90
17252;DHT22;8742;51.716;8.790;2023-11-21T05:51:31;8.00;99.90
17252;DHT22;8742;51.716;8.790;2023-11-21T05:53:58;8.00;99.90
17252;DHT22;8742;51.716;8.790;2023-11-21T05:56:25;8.10;99.90
17252;DHT22;8742;51.716;8.790;2023-11-21T05:58:51;8.00;99.90
17252;DHT22;8742;51.716;8.790;2023-11-21T06:01:18;8.10;99.90
17252;DHT22;8742;51.716;8.790;2023-11-21T06:03:45;8.10;99.90
17252;DHT22;8742;51.716;8.790;2023-11-21T06:06:12;8.10;99.90
17252;DHT22;8742;51.716;8.790;2023-11-21T06:08:40;8.10;99.90
17252;DHT22;8742;51.716;8.790;2023-11-21T06:11:08;8.10;99.90
17252;DHT22;8742;51.716;8.790;2023-11-21T06:13:37;8.10;99.90
17252;DHT22;8742;51.716;8.790;2023-11-21T06:16:04;8.10;99.90
17252;DHT22;8742;51.716;8.790;2023-11-21T06:18:31;8.10;99.90
17252;DHT22;8742;51.716;8.790;2023-11-21T06:20:58;8.10;99.90
17252;DHT22;8742;51.716;8.790;2023-11-21T06:23:26;8.10;99.90
17252;DHT22;8742;51.716;8.790;2023-11-21T06:25:54;8.10;99.90
17252;DHT22;8742;51.716;8.790;2023-11-21T06:28:21;8.10;99.90
17252;DHT22;8742;51.716;8.790;2023-11-21T06:30:48;8.10;99.90
17252;DHT22;8742;51.716;8.790;2023-11-21T06:33:19;8.10;99.90
17252;DHT22;8742;51.716;8.790;2023-11-21T06:35:47;8.10;99.90
17252;DHT22;8742;51.716;8.790;2023-11-21T06:38:14;8.10;99.90
17252;DHT22;8742;51.716;8.790;2023-11-21T06:40:41;8.10;99.90
17252;DHT22;8742;51.716;8.790;2023-11-21T06:43:09;8.10;99.90
17252;DHT22;8742;51.716;8.790;2023-11-21T06:45:35;8.10;99.90
17252;DHT22;8742;51.716;8.790;2023-11-21T06:48:02;8.10;99.90
17252;DHT22;8742;51.716;8.790;2023-11-21T06:50:29;8.10;99.90
17252;DHT22;8742;51.716;8.790;2023-11-21T06:52:56;8.10;99.90
17252;DHT22;8742;51.716;8.790;2023-11-21T06:55:23;8.10;99.90
17252;DHT22;8742;51.716;8.790;2023-11-21T06:57:50;8.10;99.90
17252;DHT22;8742;51.716;8.790;2023-11-21T07:00:19;8.10;99.90
17252;DHT22;8742;51.716;8.790;2023-11-21T07:02:46;8.10;99.90
17252;DHT22;8742;51.716;8.790;2023-11-21T07:05:15;8.10;99.90
17252;DHT22;8742;51.716;8.790;2023-11-21T07:07:46;8.10;99.90
17252;DHT22;8742;51.716;8.790;2023-11-21T07:10:13;8.10;99.90
17252;DHT22;8742;51.716;8.790;2023-11-21T07:12:40;8.10;99.90
17252;DHT22;8742;51.716;8.790;2023-11-21T07:15:08;8.10;99.90
17252;DHT22;8742;51.716;8.790;2023-11-21T07:17:37;8.10;99.90
17252;DHT22;8742;51.716;8.790;2023-11-21T07:20:04;8.10;99.90
17252;DHT22;8742;51.716;8.790;2023-11-21T07:22:32;8.10;99.90
17252;DHT22;8742;51.716;8.790;2023-11-21T07:24:59;8.10;99.90
17252;DHT22;8742;51.716;8.790;2023-11-21T07:27:26;8.10;99.90
17252;DHT22;8742;51.716;8.790;2023-11-21T07:29:52;8.10;99.90
17252;DHT22;8742;51.716;8.790;2023-11-21T07:32:19;8.20;99.90
17252;DHT22;8742;51.716;8.790;2023-11-21T07:34:47;8.20;99.90
17252;DHT22;8742;51.716;8.790;2023-11-21T07:37:14;8.10;99.90
17252;DHT22;8742;51.716;8.790;2023-11-21T07:39:41;8.20;99.90
17252;DHT22;8742;51.716;8.790;2023-11-21T07:42:09;8.20;99.90
17252;DHT22;8742;51.716;8.790;2023-11-21T07:44:37;8.20;99.90
17252;DHT22;8742;51.716;8.790;2023-11-21T07:47:04;8.20;99.90
17252;DHT22;8742;51.716;8.790;2023-11-21T07:49:31;8.20;99.90
17252;DHT22;8742;51.716;8.790;2023-11-21T07:51:59;8.20;99.90
17252;DHT22;8742;51.716;8.790;2023-11-21T07:54:26;8.20;99.90
17252;DHT22;8742;51.716;8.790;2023-11-21T07:56:53;8.20;99.90
17252;DHT22;8742;51.716;8.790;2023-11-21T07:59:20;8.20;99.90
17252;DHT22;8742;51.716;8.790;2023-11-21T08:01:47;8.20;99.90
17252;DHT22;8742;51.716;8.790;2023-11-21T08:04:14;8.30;99.90
17252;DHT22;8742;51.716;8.790;2023-11-21T08:06:41;8.30;99.90
17252;DHT22;8742;51.716;8.790;2023-11-21T08:09:09;8.30;99.90
17252;DHT22;8742;51.716;8.790;2023-11-21T08:11:37;8.30;99.90
17252;DHT22;8742;51.716;8.790;2023-11-21T08:14:04;8.30;99.90
17252;DHT22;8742;51.716;8.790;2023-11-21T08:16:31;8.30;99.90
17252;DHT22;8742;51.716;8.790;2023-11-21T08:18:58;8.30;99.90
17252;DHT22;8742;51.716;8.790;2023-11-21T08:21:26;8.30;99.90
17252;DHT22;8742;51.716;8.790;2023-11-21T08:23:55;8.30;99.90
17252;DHT22;8742;51.716;8.790;2023-11-21T08:26:23;8.30;99.90
17252;DHT22;8742;51.716;8.790;2023-11-21T08:28:50;8.30;99.90
17252;DHT22;8742;51.716;8.790;2023-11-21T08:31:24;8.30;99.90
17252;DHT22;8742;51.716;8.790;2023-11-21T08:33:51;8.30;99.90
17252;DHT22;8742;51.716;8.790;2023-11-21T08:36:21;8.30;99.90
17252;DHT22;8742;51.716;8.790;2023-11-21T08:38:48;8.30;99.90
17252;DHT22;8742;51.716;8.790;2023-11-21T08:41:18;8.30;99.90
17252;DHT22;8742;51.716;8.790;2023-11-21T08:43:49;8.30;99.90
17252;DHT22;8742;51.716;8.790;2023-11-21T08:46:16;8.30;99.90
17252;DHT22;8742;51.716;8.790;2023-11-21T08:48:43;8.30;99.90
17252;DHT22;8742;51.716;8.790;2023-11-21T08:51:10;8.30;99.90
17252;DHT22;8742;51.716;8.790;2023-11-21T08:53:39;8.30;99.90
17252;DHT22;8742;51.716;8.790;2023-11-21T08:56:07;8.30;99.90
17252;DHT22;8742;51.716;8.790;2023-11-21T08:58:35;8.30;99.90
17252;DHT22;8742;51.716;8.790;2023-11-21T09:01:05;8.30;99.90
17252;DHT22;8742;51.716;8.790;2023-11-21T09:03:32;8.40;99.90
17252;DHT22;8742;51.716;8.790;2023-11-21T09:06:00;8.40;99.90
17252;DHT22;8742;51.716;8.790;2023-11-21T09:08:27;8.40;99.90
17252;DHT22;8742;51.716;8.790;2023-11-21T09:10:55;8.40;99.90
17252;DHT22;8742;51.716;8.790;2023-11-21T09:13:22;8.40;99.90
17252;DHT22;8742;51.716;8.790;2023-11-21T09:15:50;8.40;99.90
17252;DHT22;8742;51.716;8.790;2023-11-21T09:18:18;8.40;99.90
17252;DHT22;8742;51.716;8.790;2023-11-21T09:20:45;8.40;99.90
17252;DHT22;8742;51.716;8.790;2023-11-21T09:23:12;8.50;99.90
17252;DHT22;8742;51.716;8.790;2023-11-21T09:25:39;8.50;99.90
17252;DHT22;8742;51.716;8.790;2023-11-21T09:28:06;8.50;99.90
17252;DHT22;8742;51.716;8.790;2023-11-21T09:30:35;8.50;99.90
17252;DHT22;8742;51.716;8.790;2023-11-21T09:33:03;8.50;99.90
17252;DHT22;8742;51.716;8.790;2023-11-21T09:35:34;8.50;99.90
17252;DHT22;8742;51.716;8.790;2023-11-21T09:38:01;8.50;99.90
17252;DHT22;8742;51.716;8.790;2023-11-21T09:40:31;8.50;99.90
17252;DHT22;8742;51.716;8.790;2023-11-21T09:42:58;8.50;99.90
17252;DHT22;8742;51.716;8.790;2023-11-21T09:45:26;8.50;99.90
17252;DHT22;8742;51.716;8.790;2023-11-21T09:47:54;8.50;99.90
17252;DHT22;8742;51.716;8.790;2023-11-21T09:50:22;8.50;99.90
17252;DHT22;8742;51.716;8.790;2023-11-21T09:52:56;8.50;99.90
17252;DHT22;8742;51.716;8.790;2023-11-21T09:55:26;8.50;99.90
17252;DHT22;8742;51.716;8.790;2023-11-21T09:57:54;8.50;99.90
17252;DHT22;8742;51.716;8.790;2023-11-21T10:00:22;8.50;99.90
17252;DHT22;8742;51.716;8.790;2023-11-21T10:02:50;8.50;99.90
17252;DHT22;8742;51.716;8.790;2023-11-21T10:05:19;8.50;99.90
17252;DHT22;8742;51.716;8.790;2023-11-21T10:07:49;8.50;99.90
17252;DHT22;8742;51.716;8.790;2023-11-21T10:10:19;8.50;99.90
17252;DHT22;8742;51.716;8.790;2023-11-21T10:12:50;8.50;99.90
17252;DHT22;8742;51.716;8.790;2023-11-21T10:15:21;8.50;99.90
17252;DHT22;8742;51.716;8.790;2023-11-21T10:17:49;8.50;99.90
17252;DHT22;8742;51.716;8.790;2023-11-21T10:20:19;8.50;99.90
17252;DHT22;8742;51.716;8.790;2023-11-21T10:22:46;8.50;99.90
17252;DHT22;8742;51.716;8.790;2023-11-21T10:25:14;8.50;99.90
17252;DHT22;8742;51.716;8.790;2023-11-21T10:27:47;8.50;99.90
17252;DHT22;8742;51.716;8.790;2023-11-21T10:30:16;8.50;99.90
17252;DHT22;8742;51.716;8.790;2023-11-21T10:32:46;8.50;99.90
17252;DHT22;8742;51.716;8.790;2023-11-21T10:35:22;8.50;99.90
17252;DHT22;8742;51.716;8.790;2023-11-21T10:38:00;8.50;99.90
17252;DHT22;8742;51.716;8.790;2023-11-21T10:40:28;8.60;99.90
17252;DHT22;8742;51.716;8.790;2023-11-21T10:43:06;8.60;99.90
17252;DHT22;8742;51.716;8.790;2023-11-21T10:45:34;8.50;99.90
17252;DHT22;8742;51.716;8.790;2023-11-21T10:48:05;8.60;99.90
17252;DHT22;8742;51.716;8.790;2023-11-21T10:50:36;8.60;99.90
17252;DHT22;8742;51.716;8.790;2023-11-21T10:53:04;8.60;99.90
17252;DHT22;8742;51.716;8.790;2023-11-21T10:55:32;8.60;99.90
17252;DHT22;8742;51.716;8.790;2023-11-21T10:58:02;8.60;99.90
17252;DHT22;8742;51.716;8.790;2023-11-21T11:00:33;8.70;99.90
17252;DHT22;8742;51.716;8.790;2023-11-21T11:03:00;8.70;99.90
17252;DHT22;8742;51.716;8.790;2023-11-21T11:05:29;8.70;99.90
17252;DHT22;8742;51.716;8.790;2023-11-21T11:08:01;8.70;99.90
17252;DHT22;8742;51.716;8.790;2023-11-21T11:10:30;8.80;99.90
17252;DHT22;8742;51.716;8.790;2023-11-21T11:12:59;8.80;99.90
17252;DHT22;8742;51.716;8.790;2023-11-21T11:15:27;8.80;99.90
17252;DHT22;8742;51.716;8.790;2023-11-21T11:17:55;8.80;99.90
17252;DHT22;8742;51.716;8.790;2023-11-21T11:20:23;8.80;99.90
17252;DHT22;8742;51.716;8.790;2023-11-21T11:23:04;8.80;99.90
17252;DHT22;8742;51.716;8.790;2023-11-21T11:25:55;8.80;99.90
17252;DHT22;8742;51.716;8.790;2023-11-21T11:28:35;8.90;99.90
17252;DHT22;8742;51.716;8.790;2023-11-21T11:31:09;8.90;99.90
17252;DHT22;8742;51.716;8.790;2023-11-21T11:33:41;8.90;99.90
17252;DHT22;8742;51.716;8.790;2023-11-21T11:36:15;8.90;99.90
17252;DHT22;8742;51.716;8.790;2023-11-21T11:38:46;8.90;99.90
17252;DHT22;8742;51.716;8.790;2023-11-21T11:41:25;8.90;99.90
17252;DHT22;8742;51.716;8.790;2023-11-21T11:43:54;8.90;99.90
17252;DHT22;8742;51.716;8.790;2023-11-21T11:46:21;8.90;99.90
17252;DHT22;8742;51.716;8.790;2023-11-21T11:49:07;8.90;99.90
17252;DHT22;8742;51.716;8.790;2023-11-21T11:51:34;8.90;99.90
17252;DHT22;8742;51.716;8.790;2023-11-21T11:54:01;8.90;99.90
17252;DHT22;8742;51.716;8.790;2023-11-21T11:56:30;8.90;99.90
17252;DHT22;8742;51.716;8.790;2023-11-21T11:59:02;8.90;99.90
17252;DHT22;8742;51.716;8.790;2023-11-21T12:01:32;8.90;99.90
17252;DHT22;8742;51.716;8.790;2023-11-21T12:04:23;8.90;99.90
17252;DHT22;8742;51.716;8.790;2023-11-21T12:06:56;8.90;99.90
17252;DHT22;8742;51.716;8.790;2023-11-21T12:09:26;8.90;99.90
17252;DHT22;8742;51.716;8.790;2023-11-21T12:11:54;8.90;99.90
17252;DHT22;8742;51.716;8.790;2023-11-21T12:14:23;8.90;99.90
17252;DHT22;8742;51.716;8.790;2023-11-21T12:16:51;8.80;99.90
17252;DHT22;8742;51.716;8.790;2023-11-21T12:19:19;8.80;99.90
17252;DHT22;8742;51.716;8.790;2023-11-21T12:21:49;8.70;99.90
17252;DHT22;8742;51.716;8.790;2023-11-21T12:24:16;8.70;99.90
17252;DHT22;8742;51.716;8.790;2023-11-21T12:26:43;8.70;99.90
17252;DHT22;8742;51.716;8.790;2023-11-21T12:29:14;8.70;99.90
17252;DHT22;8742;51.716;8.790;2023-11-21T12:31:49;8.70;99.90
17252;DHT22;8742;51.716;8.790;2023-11-21T12:34:18;8.70;99.90
17252;DHT22;8742;51.716;8.790;2023-11-21T12:36:46;8.70;99.90
17252;DHT22;8742;51.716;8.790;2023-11-21T12:39:15;8.70;99.90
17252;DHT22;8742;51.716;8.790;2023-11-21T12:41:42;8.70;99.90
17252;DHT22;8742;51.716;8.790;2023-11-21T12:44:12;8.70;99.90
17252;DHT22;8742;51.716;8.790;2023-11-21T12:46:42;8.70;99.90
17252;DHT22;8742;51.716;8.790;2023-11-21T12:49:12;8.70;99.90
17252;DHT22;8742;51.716;8.790;2023-11-21T12:51:43;8.70;99.90
17252;DHT22;8742;51.716;8.790;2023-11-21T12:54:10;8.60;99.90
17252;DHT22;8742;51.716;8.790;2023-11-21T12:56:38;8.60;99.90
17252;DHT22;8742;51.716;8.790;2023-11-21T12:59:05;8.60;99.90
17252;DHT22;8742;51.716;8.790;2023-11-21T13:01:32;8.60;99.90
17252;DHT22;8742;51.716;8.790;2023-11-21T13:04:02;8.50;99.90
17252;DHT22;8742;51.716;8.790;2023-11-21T13:06:31;8.50;99.90
17252;DHT22;8742;51.716;8.790;2023-11-21T13:09:04;8.50;99.90
17252;DHT22;8742;51.716;8.790;2023-11-21T13:11:34;8.50;99.90
17252;DHT22;8742;51.716;8.790;2023-11-21T13:14:02;8.50;99.90
17252;DHT22;8742;51.716;8.790;2023-11-21T13:16:29;8.40;99.90
17252;DHT22;8742;51.716;8.790;2023-11-21T13:18:57;8.40;99.90
17252;DHT22;8742;51.716;8.790;2023-11-21T13:21:26;8.30;99.90
17252;DHT22;8742;51.716;8.790;2023-11-21T13:23:56;8.30;99.90
17252;DHT22;8742;51.716;8.790;2023-11-21T13:26:22;8.30;99.90
17252;DHT22;8742;51.716;8.790;2023-11-21T13:28:51;8.20;99.90
17252;DHT22;8742;51.716;8.790;2023-11-21T13:31:19;8.20;99.90
17252;DHT22;8742;51.716;8.790;2023-11-21T13:33:52;8.10;99.90
17252;DHT22;8742;51.716;8.790;2023-11-21T13:36:22;8.00;99.90
17252;DHT22;8742;51.716;8.790;2023-11-21T13:38:49;8.00;99.90
17252;DHT22;8742;51.716;8.790;2023-11-21T13:41:19;7.90;99.90
17252;DHT22;8742;51.716;8.790;2023-11-21T13:43:53;7.90;99.90
17252;DHT22;8742;51.716;8.790;2023-11-21T13:46:28;7.90;99.90
17252;DHT22;8742;51.716;8.790;2023-11-21T13:49:00;7.80;99.90
17252;DHT22;8742;51.716;8.790;2023-11-21T13:51:27;7.80;99.90
17252;DHT22;8742;51.716;8.790;2023-11-21T13:54:03;7.80;99.90
17252;DHT22;8742;51.716;8.790;2023-11-21T13:56:36;7.70;99.90
17252;DHT22;8742;51.716;8.790;2023-11-21T13:59:05;7.70;99.90
17252;DHT22;8742;51.716;8.790;2023-11-21T14:01:44;7.70;99.90
17252;DHT22;8742;51.716;8.790;2023-11-21T14:04:25;7.60;99.90
17252;DHT22;8742;51.716;8.790;2023-11-21T14:07:12;7.60;99.90
17252;DHT22;8742;51.716;8.790;2023-11-21T14:09:48;7.60;99.90
17252;DHT22;8742;51.716;8.790;2023-11-21T14:12:16;7.60;99.90
17252;DHT22;8742;51.716;8.790;2023-11-21T14:14:44;7.60;99.90
17252;DHT22;8742;51.716;8.790;2023-11-21T14:17:13;7.60;99.90
17252;DHT22;8742;51.716;8.790;2023-11-21T14:19:39;7.60;99.90
17252;DHT22;8742;51.716;8.790;2023-11-21T14:22:09;7.60;99.90
17252;DHT22;8742;51.716;8.790;2023-11-21T14:24:36;7.60;99.90
17252;DHT22;8742;51.716;8.790;2023-11-21T14:27:07;7.50;99.90
17252;DHT22;8742;51.716;8.790;2023-11-21T14:29:35;7.50;99.90
17252;DHT22;8742;51.716;8.790;2023-11-21T14:32:05;7.50;99.90
17252;DHT22;8742;51.716;8.790;2023-11-21T14:34:32;7.50;99.90
17252;DHT22;8742;51.716;8.790;2023-11-21T14:36:59;7.50;99.90
17252;DHT22;8742;51.716;8.790;2023-11-21T14:39:28;7.40;99.90
17252;DHT22;8742;51.716;8.790;2023-11-21T14:41:56;7.40;99.90
17252;DHT22;8742;51.716;8.790;2023-11-21T14:44:25;7.40;99.90
17252;DHT22;8742;51.716;8.790;2023-11-21T14:46:55;7.40;99.90
17252;DHT22;8742;51.716;8.790;2023-11-21T14:49:28;7.40;99.90
17252;DHT22;8742;51.716;8.790;2023-11-21T14:52:07;7.40;99.90
17252;DHT22;8742;51.716;8.790;2023-11-21T14:54:45;7.30;99.90
17252;DHT22;8742;51.716;8.790;2023-11-21T14:57:13;7.30;99.90
17252;DHT22;8742;51.716;8.790;2023-11-21T14:59:44;7.30;99.90
17252;DHT22;8742;51.716;8.790;2023-11-21T15:02:14;7.30;99.90
17252;DHT22;8742;51.716;8.790;2023-11-21T15:04:41;7.20;99.90
17252;DHT22;8742;51.716;8.790;2023-11-21T15:07:09;7.20;99.90
17252;DHT22;8742;51.716;8.790;2023-11-21T15:09:36;7.20;99.90
17252;DHT22;8742;51.716;8.790;2023-11-21T15:12:07;7.20;99.90
17252;DHT22;8742;51.716;8.790;2023-11-21T15:14:44;7.20;99.90
17252;DHT22;8742;51.716;8.790;2023-11-21T15:17:15;7.10;99.90
17252;DHT22;8742;51.716;8.790;2023-11-21T15:19:48;7.10;99.90
17252;DHT22;8742;51.716;8.790;2023-11-21T15:22:15;7.10;99.90
17252;DHT22;8742;51.716;8.790;2023-11-21T15:24:42;7.10;99.90
17252;DHT22;8742;51.716;8.790;2023-11-21T15:27:12;7.00;99.90
17252;DHT22;8742;51.716;8.790;2023-11-21T15:29:39;7.00;99.90
17252;DHT22;8742;51.716;8.790;2023-11-21T15:32:07;7.00;99.90
17252;DHT22;8742;51.716;8.790;2023-11-21T15:34:36;7.00;99.90
17252;DHT22;8742;51.716;8.790;2023-11-21T15:37:04;6.90;99.90
17252;DHT22;8742;51.716;8.790;2023-11-21T15:39:33;6.90;99.90
17252;DHT22;8742;51.716;8.790;2023-11-21T15:42:00;6.90;99.90
17252;DHT22;8742;51.716;8.790;2023-11-21T15:44:29;6.90;99.90
17252;DHT22;8742;51.716;8.790;2023-11-21T15:46:58;6.90;99.90
17252;DHT22;8742;51.716;8.790;2023-11-21T15:49:25;6.90;99.90
17252;DHT22;8742;51.716;8.790;2023-11-21T15:51:56;6.80;99.90
17252;DHT22;8742;51.716;8.790;2023-11-21T15:54:25;6.80;99.90
17252;DHT22;8742;51.716;8.790;2023-11-21T15:56:53;6.80;99.90
17252;DHT22;8742;51.716;8.790;2023-11-21T15:59:24;6.80;99.90
17252;DHT22;8742;51.716;8.790;2023-11-21T16:01:55;6.80;99.90
17252;DHT22;8742;51.716;8.790;2023-11-21T16:04:22;6.80;99.90
17252;DHT22;8742;51.716;8.790;2023-11-21T16:06:52;6.80;99.90
17252;DHT22;8742;51.716;8.790;2023-11-21T16:09:21;6.70;99.90
17252;DHT22;8742;51.716;8.790;2023-11-21T16:11:49;6.70;99.90